createdAt,value
2018-07-22T00:00:09.816Z,12.40
2018-07-22T00:02:38.502Z,12.83
2018-07-22T00:05:07.286Z,13.47
2018-07-22T00:07:35.590Z,13.27
2018-07-22T00:10:04.273Z,13.50
2018-07-22T00:12:32.563Z,13.53
2018-07-22T00:15:00.880Z,13.47
2018-07-22T00:17:29.139Z,12.27
2018-07-22T00:19:57.422Z,14.43
2018-07-22T00:22:25.687Z,12.93
2018-07-22T00:24:53.964Z,13.07
2018-07-22T00:27:22.321Z,13.10
2018-07-22T00:29:50.596Z,12.90
2018-07-22T00:32:18.964Z,13.33
2018-07-22T00:34:47.234Z,13.17
2018-07-22T00:37:15.528Z,13.30
2018-07-22T00:39:43.783Z,13.67
2018-07-22T00:42:12.057Z,12.87
2018-07-22T00:44:40.339Z,13.37
2018-07-22T00:47:08.600Z,13.80
2018-07-22T00:52:11.464Z,12.60
2018-07-22T00:54:39.733Z,13.10
2018-07-22T00:57:08.040Z,11.17
2018-07-22T00:59:36.298Z,14.07
2018-07-22T01:02:04.568Z,11.27
2018-07-22T01:04:32.856Z,11.97
2018-07-22T01:07:01.119Z,12.07
2018-07-22T01:09:29.392Z,12.00
2018-07-22T01:11:57.648Z,12.30
2018-07-22T01:14:25.936Z,11.57
2018-07-22T01:16:54.240Z,12.53
2018-07-22T01:19:22.232Z,11.77
2018-07-22T01:21:50.523Z,12.20
2018-07-22T01:24:18.848Z,12.67
2018-07-22T01:26:47.109Z,13.03
2018-07-22T01:29:15.374Z,12.60
2018-07-22T01:31:43.641Z,12.40
2018-07-22T01:34:11.913Z,13.50
2018-07-22T01:36:40.165Z,13.57
2018-07-22T01:39:09.973Z,14.63
2018-07-22T01:41:38.240Z,14.27
2018-07-22T01:44:06.503Z,13.97
2018-07-22T01:46:34.763Z,13.40
2018-07-22T01:49:03.297Z,13.13
2018-07-22T01:51:31.566Z,13.63
2018-07-22T01:53:59.820Z,13.90
2018-07-22T01:56:28.320Z,12.90
2018-07-22T01:58:56.614Z,15.57
2018-07-22T02:01:24.891Z,14.83
2018-07-22T02:03:53.216Z,13.20
2018-07-22T02:06:21.472Z,15.00
2018-07-22T02:08:49.756Z,15.13
2018-07-22T02:11:18.024Z,16.83
2018-07-22T02:13:46.282Z,15.17
2018-07-22T02:16:14.589Z,15.93
2018-07-22T02:18:42.844Z,16.50
2018-07-22T02:21:11.119Z,17.97
2018-07-22T02:23:39.401Z,16.60
2018-07-22T02:26:07.654Z,17.77
2018-07-22T02:28:35.899Z,15.70
2018-07-22T02:31:04.179Z,17.47
2018-07-22T02:33:32.452Z,19.40
2018-07-22T02:36:00.735Z,18.43
2018-07-22T02:38:29.001Z,21.97
2018-07-22T02:40:57.273Z,20.10
2018-07-22T02:43:25.549Z,20.47
2018-07-22T02:45:53.793Z,18.40
2018-07-22T02:48:22.064Z,19.33
2018-07-22T02:50:50.332Z,21.43
2018-07-22T02:53:18.601Z,19.70
2018-07-22T02:55:46.899Z,21.30
2018-07-22T02:58:15.159Z,20.33
2018-07-22T03:00:43.466Z,21.13
2018-07-22T03:03:11.768Z,22.20
2018-07-22T03:05:40.014Z,21.60
2018-07-22T03:08:08.289Z,22.70
2018-07-22T03:10:36.558Z,24.07
2018-07-22T03:13:04.816Z,22.10
2018-07-22T03:15:33.072Z,21.60
2018-07-22T03:18:01.363Z,22.37
2018-07-22T03:20:29.616Z,22.50
2018-07-22T03:22:57.892Z,22.77
2018-07-22T03:25:26.160Z,24.40
2018-07-22T03:27:54.453Z,24.03
2018-07-22T03:30:22.725Z,22.87
2018-07-22T03:32:50.996Z,24.87
2018-07-22T03:35:19.269Z,23.57
2018-07-22T03:37:47.538Z,22.93
2018-07-22T03:40:15.804Z,22.20
2018-07-22T03:42:44.070Z,24.60
2018-07-22T03:45:12.330Z,22.17
2018-07-22T03:47:40.593Z,24.17
2018-07-22T03:50:08.912Z,22.03
2018-07-22T03:52:37.180Z,21.47
2018-07-22T03:55:05.574Z,21.77
2018-07-22T03:57:33.824Z,21.97
2018-07-22T04:00:02.092Z,22.37
2018-07-22T04:02:30.352Z,20.43
2018-07-22T04:04:58.629Z,21.93
2018-07-22T04:07:26.888Z,21.47
2018-07-22T04:09:55.159Z,24.90
2018-07-22T04:12:23.421Z,22.67
2018-07-22T04:14:51.695Z,22.80
2018-07-22T04:17:19.683Z,21.00
2018-07-22T04:19:47.961Z,22.10
2018-07-22T04:22:16.277Z,20.73
2018-07-22T04:24:45.133Z,21.93
2018-07-22T04:27:13.385Z,22.50
2018-07-22T04:29:41.667Z,20.57
2018-07-22T04:32:09.929Z,21.97
2018-07-22T04:34:38.220Z,22.90
2018-07-22T04:37:06.517Z,20.73
2018-07-22T04:39:34.797Z,20.13
2018-07-22T04:42:03.061Z,21.67
2018-07-22T04:44:31.341Z,21.23
2018-07-22T04:46:59.604Z,21.40
2018-07-22T04:49:27.878Z,20.97
2018-07-22T04:51:56.169Z,20.60
2018-07-22T04:54:24.436Z,20.90
2018-07-22T04:56:52.811Z,21.07
2018-07-22T04:59:21.304Z,22.23
2018-07-22T05:01:49.564Z,21.80
2018-07-22T05:04:17.830Z,20.30
2018-07-22T05:06:46.100Z,20.20
2018-07-22T05:09:14.381Z,21.10
2018-07-22T05:11:42.703Z,20.93
2018-07-22T05:14:10.961Z,20.97
2018-07-22T05:16:39.219Z,20.17
2018-07-22T05:19:07.697Z,20.73
2018-07-22T05:21:36.001Z,21.07
2018-07-22T05:24:04.300Z,18.57
2018-07-22T05:26:32.608Z,19.60
2018-07-22T05:29:00.876Z,18.90
2018-07-22T05:31:29.244Z,20.23
2018-07-22T05:33:57.659Z,20.10
2018-07-22T05:36:25.939Z,20.97
2018-07-22T05:38:54.228Z,19.00
2018-07-22T05:41:22.492Z,18.80
2018-07-22T05:43:50.783Z,18.57
2018-07-22T05:46:19.222Z,19.60
2018-07-22T05:48:47.496Z,17.83
2018-07-22T05:51:15.764Z,17.83
2018-07-22T05:53:44.025Z,17.03
2018-07-22T05:56:12.291Z,16.93
2018-07-22T05:58:40.556Z,16.73
2018-07-22T06:01:08.834Z,16.00
2018-07-22T06:03:37.112Z,15.73
2018-07-22T06:06:05.687Z,15.13
2018-07-22T06:08:33.956Z,16.70
2018-07-22T06:11:02.213Z,20.97
2018-07-22T06:13:30.483Z,17.57
2018-07-22T06:15:58.756Z,15.43
2018-07-22T06:18:26.735Z,14.87
2018-07-22T06:20:55.008Z,13.97
2018-07-22T06:23:23.278Z,10.77
2018-07-22T06:25:51.528Z,10.90
2018-07-22T06:28:19.797Z,10.33
2018-07-22T06:30:48.060Z,10.07
2018-07-22T06:33:16.317Z,8.80
2018-07-22T06:35:44.588Z,8.83
2018-07-22T06:38:12.836Z,7.90
2018-07-22T06:40:41.125Z,8.13
2018-07-22T06:43:09.699Z,7.43
2018-07-22T06:45:37.967Z,7.00
2018-07-22T06:48:06.268Z,8.00
2018-07-22T06:50:34.513Z,7.83
2018-07-22T06:53:02.790Z,7.50
2018-07-22T06:55:31.041Z,7.10
2018-07-22T06:57:59.300Z,8.47
2018-07-22T07:00:27.552Z,7.60
2018-07-22T07:02:55.801Z,8.00
2018-07-22T07:05:24.143Z,7.70
2018-07-22T07:07:52.412Z,7.60
2018-07-22T07:10:20.676Z,7.67
2018-07-22T07:12:48.933Z,7.90
2018-07-22T07:15:17.232Z,8.50
2018-07-22T07:17:45.509Z,9.70
2018-07-22T07:20:13.792Z,9.80
2018-07-22T07:22:42.113Z,9.17
2018-07-22T07:25:10.369Z,9.23
2018-07-22T07:27:38.699Z,10.43
2018-07-22T07:30:06.979Z,10.53
2018-07-22T07:32:35.271Z,11.13
2018-07-22T07:35:03.567Z,10.33
2018-07-22T07:37:31.829Z,9.97
2018-07-22T07:40:00.081Z,10.07
2018-07-22T07:42:28.374Z,11.00
2018-07-22T07:44:56.636Z,11.27
2018-07-22T07:47:24.913Z,11.33
2018-07-22T07:49:53.193Z,12.30
2018-07-22T07:52:21.480Z,13.67
2018-07-22T07:54:49.737Z,13.13
2018-07-22T07:57:18.036Z,13.43
2018-07-22T07:59:46.293Z,14.03
2018-07-22T08:02:14.559Z,13.27
2018-07-22T08:04:42.832Z,14.57
2018-07-22T08:07:11.128Z,14.03
2018-07-22T08:09:39.387Z,15.87
2018-07-22T08:12:07.663Z,17.60
2018-07-22T08:14:35.943Z,15.70
2018-07-22T08:17:04.236Z,15.33
2018-07-22T08:19:32.592Z,15.37
2018-07-22T08:22:00.919Z,16.20
2018-07-22T08:24:29.245Z,12.63
2018-07-22T08:26:57.508Z,12.57
2018-07-22T08:29:33.701Z,12.20
2018-07-22T08:32:03.008Z,12.37
2018-07-22T08:34:31.424Z,12.30
2018-07-22T08:37:00.061Z,14.20
2018-07-22T08:39:30.424Z,13.10
2018-07-22T08:41:59.327Z,14.80
2018-07-22T08:44:27.604Z,15.20
2018-07-22T08:46:55.908Z,15.67
2018-07-22T08:49:24.273Z,15.27
2018-07-22T08:51:52.546Z,16.10
2018-07-22T08:54:20.821Z,17.13
2018-07-22T08:56:49.101Z,17.00
2018-07-22T08:59:17.385Z,19.50
2018-07-22T09:01:45.391Z,17.77
2018-07-22T09:04:13.669Z,16.50
2018-07-22T09:06:41.929Z,16.73
2018-07-22T09:09:11.436Z,16.73
2018-07-22T09:11:39.775Z,17.40
2018-07-22T09:14:08.912Z,19.20
2018-07-22T09:16:37.225Z,16.80
2018-07-22T09:19:05.572Z,16.83
2018-07-22T09:21:34.047Z,16.63
2018-07-22T09:24:02.316Z,17.27
2018-07-22T09:26:30.721Z,16.10
2018-07-22T09:28:59.079Z,17.47
2018-07-22T09:31:27.418Z,15.67
2018-07-22T09:33:55.761Z,17.57
2018-07-22T09:36:24.033Z,16.73
2018-07-22T09:38:52.300Z,15.57
2018-07-22T09:41:20.740Z,17.03
2018-07-22T09:43:49.229Z,15.10
2018-07-22T09:46:17.496Z,15.73
2018-07-22T09:48:45.755Z,17.13
2018-07-22T09:51:14.029Z,17.27
2018-07-22T09:53:42.316Z,15.40
2018-07-22T09:56:10.579Z,15.50
2018-07-22T09:58:38.987Z,15.30
2018-07-22T10:01:07.180Z,15.77
2018-07-22T10:03:35.437Z,17.33
2018-07-22T10:06:03.801Z,15.60
2018-07-22T10:08:32.207Z,15.80
2018-07-22T10:11:00.235Z,17.07
2018-07-22T10:13:28.548Z,17.40
2018-07-22T10:15:56.912Z,15.07
2018-07-22T10:18:25.210Z,16.33
2018-07-22T10:20:53.480Z,16.13
2018-07-22T10:23:21.756Z,17.20
2018-07-22T10:25:49.993Z,16.90
2018-07-22T10:28:18.253Z,16.43
2018-07-22T10:30:46.527Z,17.33
2018-07-22T10:33:14.799Z,18.27
2018-07-22T10:35:43.063Z,17.63
2018-07-22T10:38:11.363Z,19.80
2018-07-22T10:40:39.704Z,19.27
2018-07-22T10:43:07.940Z,18.30
2018-07-22T10:45:36.194Z,18.07
2018-07-22T10:48:04.474Z,18.20
2018-07-22T10:50:32.739Z,19.53
2018-07-22T10:53:01.012Z,19.83
2018-07-22T10:55:29.275Z,20.53
2018-07-22T10:57:57.531Z,19.13
2018-07-22T11:00:25.828Z,18.93
2018-07-22T11:02:54.228Z,19.20
2018-07-22T11:05:22.544Z,25.27
2018-07-22T11:07:51.039Z,19.40
2018-07-22T11:10:19.316Z,20.60
2018-07-22T11:12:47.600Z,18.00
2018-07-22T11:15:16.065Z,20.93
2018-07-22T11:17:44.406Z,19.50
2018-07-22T11:20:12.716Z,17.07
2018-07-22T11:22:41.018Z,22.10
2018-07-22T11:25:09.285Z,21.87
2018-07-22T11:27:37.592Z,21.93
2018-07-22T11:30:05.912Z,20.27
2018-07-22T11:32:34.216Z,20.63
2018-07-22T11:35:02.516Z,20.50
2018-07-22T11:37:30.800Z,20.77
2018-07-22T11:39:59.124Z,23.13
2018-07-22T11:42:27.393Z,13.00
2018-07-22T11:44:55.689Z,9.80
2018-07-22T11:48:48.400Z,10.40
2018-07-22T11:51:16.660Z,10.27
2018-07-22T11:53:44.911Z,10.87
2018-07-22T11:56:13.184Z,9.70
2018-07-22T11:58:41.502Z,10.67
2018-07-22T12:01:09.767Z,12.23
2018-07-22T12:03:38.051Z,9.23
2018-07-22T12:06:06.367Z,11.60
2018-07-22T12:08:34.629Z,9.47
2018-07-22T12:11:02.889Z,9.60
2018-07-22T12:13:31.165Z,9.20
2018-07-22T12:15:59.431Z,12.23
2018-07-22T12:18:27.686Z,10.53
2018-07-22T12:20:55.940Z,10.13
2018-07-22T12:23:24.233Z,10.90
2018-07-22T12:25:52.484Z,9.90
2018-07-22T12:28:20.739Z,9.97
2018-07-22T12:30:48.997Z,10.60
2018-07-22T12:33:17.268Z,11.87
2018-07-22T12:35:45.524Z,12.83
2018-07-22T12:38:13.788Z,15.97
2018-07-22T12:40:42.060Z,15.47
2018-07-22T12:43:10.312Z,15.27
2018-07-22T12:45:38.561Z,16.03
2018-07-22T12:48:06.821Z,14.30
2018-07-22T12:50:35.083Z,13.70
2018-07-22T12:53:03.468Z,14.43
2018-07-22T12:55:31.744Z,14.97
2018-07-22T12:58:00.329Z,11.17
2018-07-22T13:00:28.590Z,11.70
2018-07-22T13:02:57.160Z,11.20
2018-07-22T13:05:25.415Z,10.50
2018-07-22T13:07:53.665Z,10.17
2018-07-22T13:10:21.953Z,10.13
2018-07-22T13:12:50.221Z,10.23
2018-07-22T13:15:18.501Z,10.97
2018-07-22T13:17:46.770Z,10.30
2018-07-22T13:20:15.042Z,9.60
2018-07-22T13:22:43.348Z,10.20
2018-07-22T13:25:11.604Z,9.63
2018-07-22T13:27:39.855Z,8.63
2018-07-22T13:30:08.606Z,8.97
2018-07-22T13:32:36.871Z,8.30
2018-07-22T13:35:05.470Z,9.20
2018-07-22T13:37:33.740Z,12.10
2018-07-22T13:40:02.009Z,10.17
2018-07-22T13:42:30.272Z,10.93
2018-07-22T13:44:58.540Z,10.43
2018-07-22T13:47:26.820Z,11.43
2018-07-22T13:49:55.105Z,11.10
2018-07-22T13:52:23.397Z,10.70
2018-07-22T13:54:51.705Z,12.87
2018-07-22T13:57:19.985Z,11.13
2018-07-22T13:59:48.248Z,11.10
2018-07-22T14:02:16.520Z,11.07
2018-07-22T14:04:44.788Z,11.07
2018-07-22T14:07:13.096Z,10.73
2018-07-22T14:09:41.344Z,12.23
2018-07-22T14:12:09.768Z,13.70
2018-07-22T14:14:37.940Z,13.20
2018-07-22T14:17:06.236Z,12.93
2018-07-22T14:19:34.493Z,14.40
2018-07-22T14:22:02.761Z,14.47
2018-07-22T14:24:31.047Z,13.90
2018-07-22T14:26:59.334Z,12.80
2018-07-22T14:29:27.589Z,14.60
2018-07-22T14:31:55.871Z,13.10
2018-07-22T14:34:24.124Z,12.93
2018-07-22T14:36:52.408Z,12.80
2018-07-22T14:39:20.689Z,12.63
2018-07-22T14:41:48.952Z,13.80
2018-07-22T14:44:17.232Z,12.67
2018-07-22T14:46:45.508Z,14.97
2018-07-22T14:49:13.769Z,15.80
2018-07-22T14:51:42.036Z,14.60
2018-07-22T14:54:10.301Z,13.80
2018-07-22T14:56:38.575Z,14.33
2018-07-22T14:59:06.852Z,13.83
2018-07-22T15:01:35.140Z,14.67
2018-07-22T15:04:03.464Z,14.53
2018-07-22T15:06:31.746Z,12.83
2018-07-22T15:09:00.013Z,13.13
2018-07-22T15:11:28.287Z,13.73
2018-07-22T15:13:56.582Z,11.53
2018-07-22T15:16:24.836Z,11.57
2018-07-22T15:18:53.120Z,10.60
2018-07-22T15:21:21.424Z,11.00
2018-07-22T15:23:49.715Z,11.10
2018-07-22T15:26:17.988Z,11.27
2018-07-22T15:28:46.271Z,12.13
2018-07-22T15:31:14.531Z,11.20
2018-07-22T15:33:42.808Z,11.47
2018-07-22T15:36:11.129Z,12.80
2018-07-22T15:38:39.382Z,13.90
2018-07-22T15:41:07.656Z,13.23
2018-07-22T15:43:35.663Z,13.97
2018-07-22T15:46:03.944Z,13.60
2018-07-22T15:48:32.203Z,13.83
2018-07-22T15:51:00.479Z,13.90
2018-07-22T15:53:28.728Z,15.30
2018-07-22T15:55:57.089Z,12.60
2018-07-22T15:58:25.268Z,13.87
2018-07-22T16:00:53.592Z,14.13
2018-07-22T16:03:21.840Z,13.80
2018-07-22T16:05:50.090Z,13.33
2018-07-22T16:08:18.360Z,13.03
2018-07-22T16:10:46.621Z,12.93
2018-07-22T16:13:14.921Z,12.70
2018-07-22T16:15:43.184Z,13.13
2018-07-22T16:18:11.489Z,13.30
2018-07-22T16:20:39.789Z,12.73
2018-07-22T16:23:08.070Z,12.50
2018-07-22T16:25:36.344Z,11.50
2018-07-22T16:28:04.607Z,14.30
2018-07-22T16:30:32.864Z,11.77
2018-07-22T16:33:01.115Z,12.37
2018-07-22T16:35:29.419Z,12.57
2018-07-22T16:37:57.689Z,11.03
2018-07-22T16:40:25.945Z,11.40
2018-07-22T16:42:54.210Z,11.73
2018-07-22T16:45:22.471Z,12.87
2018-07-22T16:47:50.726Z,12.60
2018-07-22T16:50:18.989Z,13.43
2018-07-22T16:52:47.245Z,13.07
2018-07-22T16:55:15.541Z,15.63
2018-07-22T16:57:43.811Z,15.20
2018-07-22T17:00:12.292Z,16.77
2018-07-22T17:02:40.578Z,17.20
2018-07-22T17:05:08.848Z,16.80
2018-07-22T17:07:37.105Z,23.30
2018-07-22T17:10:05.424Z,30.77
2018-07-22T17:12:33.700Z,25.13
2018-07-22T17:15:01.985Z,19.70
2018-07-22T17:17:30.249Z,18.60
2018-07-22T17:19:58.504Z,16.30
2018-07-22T17:22:26.501Z,15.63
2018-07-22T17:24:54.762Z,17.50
2018-07-22T17:27:23.031Z,17.10
2018-07-22T17:29:51.011Z,16.83
2018-07-22T17:32:19.288Z,15.27
2018-07-22T17:34:47.576Z,16.53
2018-07-22T17:37:15.868Z,15.97
2018-07-22T17:39:44.359Z,19.13
2018-07-22T17:42:12.705Z,15.03
2018-07-22T17:44:40.982Z,15.00
2018-07-22T17:47:09.231Z,14.50
2018-07-22T17:49:37.492Z,13.27
2018-07-22T17:52:05.796Z,14.53
2018-07-22T17:54:34.076Z,16.03
2018-07-22T17:57:02.373Z,13.63
2018-07-22T17:59:30.636Z,15.40
2018-07-22T18:01:58.908Z,16.27
2018-07-22T18:04:27.301Z,15.50
2018-07-22T18:06:55.569Z,14.30
2018-07-22T18:09:23.821Z,13.93
2018-07-22T18:11:52.110Z,15.83
2018-07-22T18:14:20.599Z,15.37
2018-07-22T18:16:48.909Z,14.93
2018-07-22T18:19:16.898Z,31.23
2018-07-22T18:21:45.815Z,73.40
2018-07-22T18:24:14.156Z,74.47
2018-07-22T18:26:42.421Z,15.97
2018-07-22T18:29:10.703Z,17.23
2018-07-22T18:31:39.022Z,16.10
2018-07-22T18:34:07.340Z,16.00
2018-07-22T18:36:35.615Z,15.57
2018-07-22T18:39:05.749Z,16.90
2018-07-22T18:41:33.996Z,59.33
2018-07-22T18:44:02.244Z,15.27
2018-07-22T18:46:30.223Z,17.47
2018-07-22T18:48:58.607Z,16.70
2018-07-22T18:51:27.085Z,17.00
2018-07-22T18:53:55.350Z,13.33
2018-07-22T18:56:23.592Z,16.33
2018-07-22T18:58:51.880Z,16.87
2018-07-22T19:01:20.600Z,17.17
2018-07-22T19:03:48.947Z,17.77
2018-07-22T19:06:17.501Z,15.97
2018-07-22T19:08:46.056Z,16.10
2018-07-22T19:11:14.534Z,15.87
2018-07-22T19:13:42.887Z,17.13
2018-07-22T19:16:11.348Z,15.40
2018-07-22T19:18:39.863Z,16.33
2018-07-22T19:21:08.292Z,14.67
2018-07-22T19:23:36.724Z,15.23
2018-07-22T19:26:05.271Z,17.97
2018-07-22T19:28:33.859Z,17.37
2018-07-22T19:31:02.214Z,18.43
2018-07-22T19:33:30.584Z,16.40
2018-07-22T19:35:59.012Z,18.07
2018-07-22T19:38:27.548Z,16.67
2018-07-22T19:40:56.043Z,17.50
2018-07-22T19:43:24.397Z,18.30
2018-07-22T19:45:52.811Z,17.00
2018-07-22T19:48:21.174Z,18.90
2018-07-22T19:50:49.727Z,16.03
2018-07-22T19:53:18.076Z,15.60
2018-07-22T19:55:46.428Z,14.23
2018-07-22T19:58:14.862Z,14.13
2018-07-22T20:00:43.287Z,16.80
2018-07-22T20:03:11.885Z,17.47
2018-07-22T20:05:40.348Z,19.60
2018-07-22T20:08:08.769Z,17.27
2018-07-22T20:10:37.184Z,16.43
2018-07-22T20:13:05.713Z,16.17
2018-07-22T20:15:34.158Z,15.70
2018-07-22T20:18:02.521Z,16.57
2018-07-22T20:20:30.953Z,15.93
2018-07-22T20:22:59.400Z,16.10
2018-07-22T20:25:27.946Z,19.73
2018-07-22T20:27:56.216Z,17.30
2018-07-22T20:30:24.274Z,16.93
2018-07-22T20:32:55.533Z,14.93
2018-07-22T20:35:23.820Z,15.83
2018-07-22T20:37:52.079Z,16.43
2018-07-22T20:40:20.343Z,15.20
2018-07-22T20:42:48.605Z,14.37
2018-07-22T20:45:16.874Z,15.33
2018-07-22T20:47:45.147Z,14.53
2018-07-22T20:50:13.420Z,16.17
2018-07-22T20:52:41.681Z,18.13
2018-07-22T20:55:09.996Z,13.40
2018-07-22T20:57:38.282Z,14.73
2018-07-22T21:00:07.416Z,18.03
2018-07-22T21:02:35.791Z,16.77
2018-07-22T21:05:04.125Z,16.53
2018-07-22T21:07:32.420Z,16.53
2018-07-22T21:10:00.674Z,17.37
2018-07-22T21:12:42.418Z,14.57
2018-07-22T21:15:10.777Z,15.40
2018-07-22T21:17:38.973Z,16.63
2018-07-22T21:20:07.433Z,17.80
2018-07-22T21:22:35.728Z,17.17
2018-07-22T21:25:04.057Z,17.53
2018-07-22T21:27:32.404Z,16.03
2018-07-22T21:30:00.722Z,16.83
2018-07-22T21:32:28.996Z,17.43
2018-07-22T21:34:57.264Z,16.63
2018-07-22T21:37:25.540Z,14.90
2018-07-22T21:39:53.848Z,15.20
2018-07-22T21:42:22.095Z,17.63
2018-07-22T21:44:50.373Z,17.83
2018-07-22T21:47:18.632Z,17.20
2018-07-22T21:49:46.900Z,16.57
2018-07-22T21:52:15.185Z,16.17
2018-07-22T21:54:43.465Z,14.90
2018-07-22T21:57:11.773Z,17.20
2018-07-22T21:59:40.021Z,17.97
2018-07-22T22:02:08.370Z,18.03
2018-07-22T22:04:36.697Z,15.37
2018-07-22T22:07:04.992Z,15.43
2018-07-22T22:09:33.369Z,17.33
2018-07-22T22:12:01.713Z,16.30
2018-07-22T22:14:30.046Z,19.10
2018-07-22T22:16:58.337Z,17.60
2018-07-22T22:19:26.604Z,19.60
2018-07-22T22:21:54.869Z,18.30
2018-07-22T22:24:23.125Z,17.00
2018-07-22T22:26:51.407Z,17.83
2018-07-22T22:29:19.704Z,15.33
2018-07-22T22:31:47.968Z,19.23
2018-07-22T22:34:16.225Z,18.90
2018-07-22T22:36:44.495Z,18.53
2018-07-22T22:39:13.684Z,16.50
2018-07-22T22:41:42.908Z,18.00
2018-07-22T22:44:11.160Z,17.13
2018-07-22T22:46:40.176Z,16.57
2018-07-22T22:49:08.978Z,15.83
2018-07-22T22:51:37.285Z,17.37
2018-07-22T22:54:05.657Z,17.27
2018-07-22T22:56:33.923Z,16.87
2018-07-22T22:59:13.445Z,16.23
2018-07-22T23:01:41.716Z,16.43
2018-07-22T23:04:10.004Z,14.60
2018-07-22T23:06:38.263Z,16.67
2018-07-22T23:09:08.381Z,18.07
2018-07-22T23:11:36.878Z,17.30
2018-07-22T23:14:05.439Z,17.47
2018-07-22T23:16:33.713Z,19.33
2018-07-22T23:19:01.973Z,17.93
2018-07-22T23:21:30.265Z,19.00
2018-07-22T23:23:58.759Z,17.90
2018-07-22T23:26:27.253Z,17.07
2018-07-22T23:28:55.575Z,16.17
2018-07-22T23:31:23.890Z,17.00
2018-07-22T23:33:52.156Z,18.23
2018-07-22T23:36:20.456Z,16.30
2018-07-22T23:38:48.703Z,15.90
2018-07-22T23:41:16.972Z,16.80
2018-07-22T23:43:45.225Z,17.60
2018-07-22T23:46:13.492Z,20.03
2018-07-22T23:48:41.752Z,15.17
2018-07-22T23:51:10.016Z,16.70
2018-07-22T23:53:44.747Z,16.27
2018-07-22T23:56:13.020Z,16.63
2018-07-22T23:58:41.285Z,16.83
